createdAt,value
2023-04-18T00:01:50.200Z,6.65
2023-04-18T00:04:18.542Z,7.53
2023-04-18T00:06:47.256Z,7.40
2023-04-18T00:09:14.824Z,7.40
2023-04-18T00:11:42.343Z,7.30
2023-04-18T00:14:10.491Z,7.70
2023-04-18T00:16:38.698Z,7.13
2023-04-18T00:19:06.579Z,6.65
2023-04-18T00:21:34.344Z,7.80
2023-04-18T00:24:02.272Z,7.90
2023-04-18T00:26:29.879Z,6.47
2023-04-18T00:28:58.501Z,7.10
2023-04-18T00:31:26.101Z,6.25
2023-04-18T00:33:53.619Z,6.47
2023-04-18T00:36:24.415Z,6.15
2023-04-18T00:38:52.045Z,6.82
2023-04-18T00:41:21.405Z,6.88
2023-04-18T00:43:48.987Z,6.78
2023-04-18T00:46:16.561Z,6.55
2023-04-18T00:48:44.203Z,6.35
2023-04-18T00:51:12.094Z,6.00
2023-04-18T00:53:42.351Z,7.55
2023-04-18T00:56:10.105Z,6.97
2023-04-18T00:58:37.699Z,6.38
2023-04-18T01:01:05.669Z,6.55
2023-04-18T01:03:34.712Z,6.88
2023-04-18T01:06:02.554Z,7.80
2023-04-18T01:08:30.386Z,7.22
2023-04-18T01:10:59.131Z,6.72
2023-04-18T01:13:26.664Z,8.75
2023-04-18T01:15:55.683Z,8.07
2023-04-18T01:18:24.328Z,7.65
2023-04-18T01:20:56.924Z,7.57
2023-04-18T01:23:24.470Z,6.53
2023-04-18T01:25:52.012Z,7.25
2023-04-18T01:28:23.790Z,7.82
2023-04-18T01:30:51.482Z,6.38
2023-04-18T01:33:18.979Z,6.93
2023-04-18T01:35:47.906Z,7.68
2023-04-18T01:38:15.374Z,7.40
2023-04-18T01:40:42.960Z,7.32
2023-04-18T01:43:10.545Z,7.97
2023-04-18T01:45:38.796Z,6.72
2023-04-18T01:48:06.537Z,6.55
2023-04-18T01:50:33.994Z,7.93
2023-04-18T01:53:01.560Z,7.13
2023-04-18T01:55:29.054Z,7.45
2023-04-18T01:57:56.626Z,7.97
2023-04-18T02:00:24.142Z,6.43
2023-04-18T02:02:51.825Z,8.32
2023-04-18T02:05:21.527Z,7.70
2023-04-18T02:07:50.238Z,5.80
2023-04-18T02:10:18.890Z,9.20
2023-04-18T02:12:46.414Z,6.93
2023-04-18T02:15:14.109Z,6.95
2023-04-18T02:17:41.994Z,7.93
2023-04-18T02:20:10.879Z,6.68
2023-04-18T02:22:39.426Z,7.53
2023-04-18T02:25:07.604Z,6.88
2023-04-18T02:27:35.152Z,8.52
2023-04-18T02:30:03.023Z,6.63
2023-04-18T02:32:34.171Z,8.95
2023-04-18T02:35:01.775Z,7.28
2023-04-18T02:37:29.573Z,8.27
2023-04-18T02:39:57.027Z,7.95
2023-04-18T02:42:24.565Z,7.07
2023-04-18T02:44:52.075Z,7.80
2023-04-18T02:47:19.746Z,7.65
2023-04-18T02:49:47.672Z,7.22
2023-04-18T02:52:15.349Z,9.40
2023-04-18T02:54:42.780Z,7.85
2023-04-18T02:57:15.465Z,8.98
2023-04-18T03:00:00.606Z,6.88
2023-04-18T03:02:50.577Z,9.18
2023-04-18T03:05:36.712Z,8.00
2023-04-18T03:08:06.394Z,8.35
2023-04-18T03:10:35.652Z,9.00
2023-04-18T03:13:03.243Z,8.88
2023-04-18T03:15:31.161Z,7.70
2023-04-18T03:17:59.680Z,9.00
2023-04-18T03:20:31.022Z,9.60
2023-04-18T03:22:58.552Z,11.40
2023-04-18T03:25:29.329Z,10.70
2023-04-18T03:27:57.181Z,10.07
2023-04-18T03:30:26.172Z,9.70
2023-04-18T03:32:56.270Z,9.55
2023-04-18T03:35:24.174Z,9.90
2023-04-18T03:37:51.927Z,9.30
2023-04-18T03:40:29.166Z,10.48
2023-04-18T03:43:01.763Z,9.70
2023-04-18T03:45:29.523Z,9.77
2023-04-18T03:47:57.213Z,12.23
2023-04-18T03:50:26.276Z,13.90
2023-04-18T03:52:55.681Z,12.05
2023-04-18T03:55:23.261Z,12.80
2023-04-18T03:57:51.515Z,11.98
2023-04-18T04:00:27.816Z,13.52
2023-04-18T04:03:04.487Z,13.27
2023-04-18T04:05:32.168Z,11.98
2023-04-18T04:07:59.941Z,10.90
2023-04-18T04:10:27.512Z,12.07
2023-04-18T04:12:55.295Z,14.15
2023-04-18T04:15:23.289Z,13.43
2023-04-18T04:17:56.611Z,12.75
2023-04-18T04:20:25.758Z,12.60
2023-04-18T04:23:01.222Z,12.10
2023-04-18T04:25:30.094Z,12.43
2023-04-18T04:28:02.832Z,11.77
2023-04-18T04:30:33.768Z,11.80
2023-04-18T04:33:02.020Z,12.13
2023-04-18T04:35:29.625Z,13.82
2023-04-18T04:37:57.074Z,11.88
2023-04-18T04:40:31.232Z,11.55
2023-04-18T04:43:06.050Z,14.27
2023-04-18T04:45:41.509Z,13.45
2023-04-18T04:48:10.230Z,13.82
2023-04-18T04:50:40.576Z,11.90
2023-04-18T04:53:08.829Z,13.32
2023-04-18T04:55:38.544Z,13.10
2023-04-18T04:58:06.260Z,12.43
2023-04-18T05:00:56.822Z,13.35
2023-04-18T05:03:24.564Z,13.35
2023-04-18T05:05:52.366Z,11.75
2023-04-18T05:08:19.847Z,12.65
2023-04-18T05:10:47.668Z,12.10
2023-04-18T05:13:15.300Z,12.20
2023-04-18T05:15:42.798Z,11.07
2023-04-18T05:18:10.381Z,12.35
2023-04-18T05:20:37.875Z,13.07
2023-04-18T05:23:05.400Z,11.60
2023-04-18T05:25:33.624Z,11.85
2023-04-18T05:28:01.486Z,11.38
2023-04-18T05:30:29.001Z,11.48
2023-04-18T05:32:56.557Z,12.05
2023-04-18T05:35:24.021Z,13.93
2023-04-18T05:37:51.631Z,11.15
2023-04-18T05:40:19.100Z,10.55
2023-04-18T05:42:46.729Z,11.52
2023-04-18T05:45:14.372Z,12.02
2023-04-18T05:47:41.885Z,12.02
2023-04-18T05:50:09.663Z,12.35
2023-04-18T05:52:40.927Z,11.77
2023-04-18T05:55:08.854Z,13.43
2023-04-18T05:57:36.387Z,11.25
2023-04-18T06:00:11.309Z,10.15
2023-04-18T06:02:41.724Z,5.63
2023-04-18T06:05:09.906Z,8.93
2023-04-18T06:07:37.787Z,12.30
2023-04-18T06:10:09.221Z,12.65
2023-04-18T06:12:37.195Z,10.88
2023-04-18T06:15:05.714Z,10.93
2023-04-18T06:17:34.309Z,9.18
2023-04-18T06:20:02.195Z,10.75
2023-04-18T06:22:29.656Z,11.02
2023-04-18T06:24:57.072Z,11.88
2023-04-18T06:27:31.452Z,9.65
2023-04-18T06:29:59.541Z,11.23
2023-04-18T06:32:27.091Z,10.77
2023-04-18T06:34:54.626Z,11.00
2023-04-18T06:37:22.276Z,10.48
2023-04-18T06:39:49.798Z,12.45
2023-04-18T06:42:17.360Z,11.68
2023-04-18T06:44:48.677Z,12.80
2023-04-18T06:47:16.397Z,9.48
2023-04-18T06:49:43.921Z,10.15
2023-04-18T06:52:11.447Z,12.25
2023-04-18T06:54:39.005Z,12.32
2023-04-18T06:57:06.908Z,12.80
2023-04-18T06:59:35.552Z,10.95
2023-04-18T07:02:03.306Z,9.73
2023-04-18T07:04:30.967Z,12.38
2023-04-18T07:06:58.502Z,10.05
2023-04-18T07:09:26.234Z,11.68
2023-04-18T07:11:53.832Z,11.57
2023-04-18T07:14:23.528Z,10.63
2023-04-18T07:16:51.627Z,8.55
2023-04-18T07:19:19.093Z,7.10
2023-04-18T07:21:46.621Z,11.80
2023-04-18T07:24:14.534Z,13.90
2023-04-18T07:26:42.176Z,8.65
2023-04-18T07:29:09.763Z,10.38
2023-04-18T07:31:37.285Z,11.00
2023-04-18T07:34:04.894Z,11.38
2023-04-18T07:36:32.705Z,9.13
2023-04-18T07:39:01.297Z,10.93
2023-04-18T07:41:28.867Z,10.20
2023-04-18T07:43:56.364Z,10.10
2023-04-18T07:46:23.880Z,9.63
2023-04-18T07:48:51.495Z,8.60
2023-04-18T07:51:19.063Z,11.38
2023-04-18T07:53:46.538Z,8.95
2023-04-18T07:56:14.516Z,11.60
2023-04-18T07:58:42.257Z,8.52
2023-04-18T08:01:13.993Z,10.85
2023-04-18T08:03:41.828Z,9.93
2023-04-18T08:06:10.005Z,11.73
2023-04-18T08:08:37.552Z,9.52
2023-04-18T08:11:05.125Z,10.57
2023-04-18T08:13:32.639Z,10.65
2023-04-18T08:16:00.339Z,9.02
2023-04-18T08:18:27.931Z,9.23
2023-04-18T08:20:55.415Z,9.55
2023-04-18T08:23:22.964Z,8.38
2023-04-18T08:25:50.968Z,9.85
2023-04-18T08:28:18.537Z,9.18
2023-04-18T08:30:49.108Z,6.68
2023-04-18T08:33:16.736Z,10.30
2023-04-18T08:35:44.300Z,9.40
2023-04-18T08:38:11.843Z,9.00
2023-04-18T08:40:39.375Z,9.95
2023-04-18T08:43:09.416Z,10.05
2023-04-18T08:45:37.072Z,8.52
2023-04-18T08:48:04.833Z,9.52
2023-04-18T08:50:32.576Z,8.52
2023-04-18T08:53:03.517Z,9.38
2023-04-18T08:55:33.521Z,9.93
2023-04-18T08:58:02.128Z,9.70
2023-04-18T09:00:30.485Z,10.98
2023-04-18T09:02:59.071Z,8.82
2023-04-18T09:05:27.520Z,7.93
2023-04-18T09:07:56.683Z,10.57
2023-04-18T09:10:28.844Z,7.63
2023-04-18T09:12:57.981Z,9.07
2023-04-18T09:15:27.282Z,9.70
2023-04-18T09:17:57.967Z,10.80
2023-04-18T09:20:53.316Z,10.73
2023-04-18T09:23:26.013Z,8.85
2023-04-18T09:25:54.411Z,9.88
2023-04-18T09:28:24.900Z,9.52
2023-04-18T09:30:53.026Z,9.73
2023-04-18T09:33:28.767Z,9.85
2023-04-18T09:35:57.370Z,8.48
2023-04-18T09:38:41.353Z,9.20
2023-04-18T09:41:10.273Z,9.13
2023-04-18T09:43:38.283Z,7.00
2023-04-18T09:46:07.316Z,7.35
2023-04-18T09:48:35.205Z,8.63
2023-04-18T09:51:08.234Z,11.20
2023-04-18T09:53:39.913Z,7.32
2023-04-18T09:56:11.819Z,8.85
2023-04-18T09:58:42.220Z,7.45
2023-04-18T10:01:10.561Z,8.45
2023-04-18T10:03:44.449Z,9.35
2023-04-18T10:06:15.928Z,9.10
2023-04-18T10:11:12.299Z,5.85
2023-04-18T10:13:44.416Z,7.95
2023-04-18T10:16:12.850Z,9.13
2023-04-18T10:18:42.563Z,6.63
2023-04-18T10:21:10.100Z,6.50
2023-04-18T10:23:41.131Z,5.93
2023-04-18T10:26:10.467Z,7.18
2023-04-18T10:28:54.585Z,8.35
2023-04-18T10:31:24.225Z,8.27
2023-04-18T10:36:30.148Z,8.32
2023-04-18T10:39:05.780Z,7.55
2023-04-18T10:41:34.340Z,7.90
2023-04-18T10:44:08.416Z,10.27
2023-04-18T10:46:38.174Z,7.40
2023-04-18T10:49:18.707Z,6.43
2023-04-18T10:51:47.709Z,6.57
2023-04-18T10:54:46.349Z,8.40
2023-04-18T10:57:15.236Z,6.35
2023-04-18T10:59:44.736Z,9.52
2023-04-18T11:02:32.424Z,9.73
2023-04-18T11:05:02.114Z,8.55
2023-04-18T11:07:36.825Z,8.27
2023-04-18T11:10:08.296Z,9.85
2023-04-18T11:12:38.390Z,8.10
2023-04-18T11:15:15.119Z,8.70
2023-04-18T11:17:43.013Z,7.63
2023-04-18T11:20:13.706Z,7.90
2023-04-18T11:22:52.402Z,8.82
2023-04-18T11:25:23.846Z,7.75
2023-04-18T11:30:19.246Z,8.00
2023-04-18T11:32:46.983Z,7.80
2023-04-18T11:35:16.034Z,8.13
2023-04-18T11:37:46.103Z,6.30
2023-04-18T11:40:14.313Z,7.75
2023-04-18T11:42:42.308Z,9.35
2023-04-18T11:45:14.267Z,8.50
2023-04-18T11:47:43.543Z,8.07
2023-04-18T11:50:13.277Z,7.75
2023-04-18T11:52:42.422Z,7.68
2023-04-18T11:55:13.013Z,8.85
2023-04-18T11:57:41.016Z,6.25
2023-04-18T12:00:12.278Z,7.65
2023-04-18T12:02:44.090Z,9.82
2023-04-18T12:05:14.525Z,8.98
2023-04-18T12:07:44.974Z,7.05
2023-04-18T12:10:29.850Z,7.53
2023-04-18T12:12:58.937Z,5.35
2023-04-18T12:15:28.623Z,5.93
2023-04-18T12:18:00.975Z,7.40
2023-04-18T12:20:36.894Z,8.70
2023-04-18T12:23:04.872Z,7.20
2023-04-18T12:25:33.564Z,7.28
2023-04-18T12:28:03.918Z,7.78
2023-04-18T12:30:36.870Z,6.43
2023-04-18T12:33:05.451Z,7.10
2023-04-18T12:35:33.172Z,7.82
2023-04-18T12:38:02.028Z,6.95
2023-04-18T12:40:30.068Z,6.65
2023-04-18T12:42:57.602Z,8.13
2023-04-18T12:45:25.421Z,7.43
2023-04-18T12:47:53.713Z,6.20
2023-04-18T12:50:24.081Z,7.10
2023-04-18T12:52:53.653Z,7.28
2023-04-18T12:55:22.849Z,6.40
2023-04-18T12:57:54.439Z,7.28
2023-04-18T13:00:30.320Z,6.32
2023-04-18T13:02:58.683Z,6.22
2023-04-18T13:05:30.884Z,5.85
2023-04-18T13:08:12.772Z,7.38
2023-04-18T13:10:44.795Z,8.52
2023-04-18T13:13:12.268Z,6.72
2023-04-18T13:15:39.965Z,6.95
2023-04-18T13:18:07.790Z,6.65
2023-04-18T13:20:36.516Z,7.40
2023-04-18T13:23:04.351Z,10.25
2023-04-18T13:25:31.908Z,7.13
2023-04-18T13:28:00.780Z,7.25
2023-04-18T13:30:28.537Z,8.13
2023-04-18T13:32:56.664Z,7.00
2023-04-18T13:35:24.239Z,7.25
2023-04-18T13:37:51.692Z,8.55
2023-04-18T13:40:19.289Z,6.78
2023-04-18T13:42:46.761Z,7.45
2023-04-18T13:45:14.312Z,6.30
2023-04-18T13:47:41.854Z,7.28
2023-04-18T13:50:09.812Z,6.15
2023-04-18T13:52:37.442Z,7.13
2023-04-18T13:55:05.362Z,7.65
2023-04-18T13:57:33.566Z,7.28
2023-04-18T14:00:01.219Z,6.03
2023-04-18T14:02:41.356Z,6.55
2023-04-18T14:05:09.508Z,4.22
2023-04-18T14:07:40.086Z,6.30
2023-04-18T14:10:08.139Z,6.13
2023-04-18T14:12:35.712Z,6.10
2023-04-18T14:15:03.424Z,6.20
2023-04-18T14:17:31.147Z,6.82
2023-04-18T14:19:58.949Z,6.55
2023-04-18T14:22:27.029Z,7.50
2023-04-18T14:24:56.124Z,7.40
2023-04-18T14:27:25.475Z,6.72
2023-04-18T14:29:53.195Z,7.68
2023-04-18T14:32:20.680Z,6.55
2023-04-18T14:34:48.235Z,7.88
2023-04-18T14:37:17.160Z,6.78
2023-04-18T14:39:46.084Z,5.68
2023-04-18T14:42:13.652Z,6.45
2023-04-18T14:44:41.515Z,5.65
2023-04-18T14:47:09.385Z,5.95
2023-04-18T14:49:36.909Z,8.35
2023-04-18T14:52:04.809Z,8.27
2023-04-18T14:54:32.896Z,5.45
2023-04-18T14:57:01.113Z,7.32
2023-04-18T14:59:28.872Z,6.70
2023-04-18T15:01:56.407Z,7.00
2023-04-18T15:04:24.223Z,6.25
2023-04-18T15:06:51.867Z,6.80
2023-04-18T15:09:19.343Z,5.35
2023-04-18T15:11:46.805Z,5.88
2023-04-18T15:14:14.514Z,5.68
2023-04-18T15:16:42.099Z,5.32
2023-04-18T15:19:09.542Z,6.18
2023-04-18T15:21:36.981Z,5.10
2023-04-18T15:24:04.659Z,6.35
2023-04-18T15:26:33.210Z,4.43
2023-04-18T15:29:04.010Z,4.90
2023-04-18T15:31:31.630Z,4.47
2023-04-18T15:33:59.208Z,4.88
2023-04-18T15:36:28.000Z,4.80
2023-04-18T15:38:55.572Z,5.45
2023-04-18T15:41:23.284Z,4.90
2023-04-18T15:43:52.769Z,5.68
2023-04-18T15:46:20.341Z,5.20
2023-04-18T15:48:47.929Z,4.53
2023-04-18T15:51:15.411Z,4.38
2023-04-18T15:53:42.969Z,3.78
2023-04-18T15:56:10.423Z,5.22
2023-04-18T15:58:38.053Z,4.63
2023-04-18T16:01:05.996Z,4.68
2023-04-18T16:03:33.911Z,4.45
2023-04-18T16:06:01.605Z,4.00
2023-04-18T16:08:31.323Z,5.00
2023-04-18T16:11:00.148Z,3.90
2023-04-18T16:13:27.552Z,4.90
2023-04-18T16:15:55.029Z,4.40
2023-04-18T16:18:22.630Z,3.97
2023-04-18T16:20:50.487Z,4.05
2023-04-18T16:23:20.069Z,4.15
2023-04-18T16:25:47.840Z,4.05
2023-04-18T16:28:15.430Z,3.88
2023-04-18T16:30:43.903Z,4.63
2023-04-18T16:33:11.385Z,4.32
2023-04-18T16:35:40.037Z,4.03
2023-04-18T16:38:07.600Z,4.25
2023-04-18T16:40:35.277Z,4.47
2023-04-18T16:43:02.721Z,4.38
2023-04-18T16:45:30.213Z,2.50
2023-04-18T16:47:57.807Z,4.50
2023-04-18T16:50:25.833Z,3.90
2023-04-18T16:52:54.410Z,5.10
2023-04-18T16:55:21.890Z,3.28
2023-04-18T16:57:49.855Z,3.97
2023-04-18T17:00:17.502Z,4.10
2023-04-18T17:02:45.250Z,4.53
2023-04-18T17:05:12.929Z,4.15
2023-04-18T17:07:41.199Z,4.72
2023-04-18T17:10:10.255Z,4.85
2023-04-18T17:12:37.955Z,3.78
2023-04-18T17:15:06.016Z,4.22
2023-04-18T17:17:34.719Z,5.30
2023-04-18T17:20:02.279Z,3.88
2023-04-18T17:22:30.219Z,3.78
2023-04-18T17:24:57.692Z,3.72
2023-04-18T17:27:25.356Z,5.80
2023-04-18T17:29:52.881Z,4.40
2023-04-18T17:32:21.175Z,4.22
2023-04-18T17:34:48.825Z,4.45
2023-04-18T17:37:17.140Z,4.53
2023-04-18T17:39:45.000Z,4.97
2023-04-18T17:42:12.463Z,4.57
2023-04-18T17:44:40.110Z,5.13
2023-04-18T17:47:07.718Z,4.07
2023-04-18T17:49:36.060Z,5.70
2023-04-18T17:52:04.093Z,4.13
2023-04-18T17:54:33.084Z,4.32
2023-04-18T17:57:01.914Z,4.10
2023-04-18T17:59:29.527Z,4.78
2023-04-18T18:01:58.579Z,4.03
2023-04-18T18:04:27.051Z,5.35
2023-04-18T18:06:58.578Z,5.10
2023-04-18T18:11:55.811Z,3.92
2023-04-18T18:14:23.699Z,4.80
2023-04-18T18:16:51.335Z,4.25
2023-04-18T18:19:20.889Z,4.30
2023-04-18T18:21:48.443Z,3.70
2023-04-18T18:24:16.249Z,5.20
2023-04-18T18:26:43.729Z,4.38
2023-04-18T18:29:11.703Z,4.13
2023-04-18T18:31:39.394Z,3.72
2023-04-18T18:34:06.945Z,5.85
2023-04-18T18:36:34.441Z,4.20
2023-04-18T18:39:01.991Z,3.90
2023-04-18T18:41:29.515Z,4.60
2023-04-18T18:43:57.260Z,3.42
2023-04-18T18:46:24.817Z,3.92
2023-04-18T18:48:52.235Z,4.50
2023-04-18T18:51:19.698Z,4.18
2023-04-18T18:53:47.221Z,4.20
2023-04-18T18:56:14.752Z,5.03
2023-04-18T18:58:43.729Z,7.00
2023-04-18T19:01:14.323Z,4.63
2023-04-18T19:03:42.031Z,5.67
2023-04-18T19:06:09.774Z,5.18
2023-04-18T19:08:37.183Z,5.00
2023-04-18T19:11:04.687Z,6.45
2023-04-18T19:13:32.262Z,5.47
2023-04-18T19:15:59.798Z,5.03
2023-04-18T19:18:27.488Z,5.68
2023-04-18T19:20:54.926Z,4.70
2023-04-18T19:23:24.955Z,5.05
2023-04-18T19:25:52.439Z,4.25
2023-04-18T19:28:19.977Z,4.85
2023-04-18T19:30:47.490Z,3.72
2023-04-18T19:33:15.007Z,4.22
2023-04-18T19:35:43.128Z,4.35
2023-04-18T19:38:10.642Z,3.90
2023-04-18T19:40:38.104Z,4.47
2023-04-18T19:43:05.644Z,4.93
2023-04-18T19:45:33.122Z,3.97
2023-04-18T19:48:01.012Z,3.60
2023-04-18T19:50:28.963Z,4.88
2023-04-18T19:52:56.660Z,5.63
2023-04-18T19:55:24.684Z,4.63
2023-04-18T19:57:56.654Z,5.15
2023-04-18T20:00:24.761Z,4.95
2023-04-18T20:02:53.775Z,5.00
2023-04-18T20:05:21.931Z,4.65
2023-04-18T20:07:50.123Z,4.78
2023-04-18T20:10:23.479Z,5.00
2023-04-18T20:12:51.134Z,5.18
2023-04-18T20:15:18.702Z,4.38
2023-04-18T20:17:46.217Z,3.78
2023-04-18T20:20:13.966Z,3.88
2023-04-18T20:22:43.040Z,3.88
2023-04-18T20:25:10.736Z,3.63
2023-04-18T20:27:38.290Z,3.72
2023-04-18T20:30:06.452Z,5.03
2023-04-18T20:32:34.576Z,4.65
2023-04-18T20:35:02.817Z,4.40
2023-04-18T20:37:30.335Z,3.80
2023-04-18T20:39:58.708Z,4.90
2023-04-18T20:42:27.423Z,3.88
2023-04-18T20:44:54.947Z,4.65
2023-04-18T20:47:22.607Z,3.72
2023-04-18T20:49:50.377Z,4.32
2023-04-18T20:52:17.873Z,4.30
2023-04-18T20:54:45.635Z,4.50
2023-04-18T20:57:13.156Z,4.47
2023-04-18T20:59:40.732Z,3.95
2023-04-18T21:02:08.530Z,3.70
2023-04-18T21:04:36.393Z,3.70
2023-04-18T21:07:04.093Z,3.38
2023-04-18T21:09:36.425Z,5.43
2023-04-18T21:12:05.430Z,4.40
2023-04-18T21:14:32.940Z,3.92
2023-04-18T21:17:00.795Z,3.45
2023-04-18T21:19:28.549Z,4.20
2023-04-18T21:21:56.128Z,3.25
2023-04-18T21:24:23.750Z,4.30
2023-04-18T21:26:51.284Z,4.40
2023-04-18T21:29:18.729Z,3.25
2023-04-18T21:31:47.311Z,3.30
2023-04-18T21:34:15.297Z,3.45
2023-04-18T21:36:42.922Z,3.45
2023-04-18T21:39:10.517Z,3.55
2023-04-18T21:41:38.483Z,3.78
2023-04-18T21:44:06.049Z,3.83
2023-04-18T21:46:33.726Z,3.03
2023-04-18T21:49:01.163Z,4.80
2023-04-18T21:51:28.690Z,4.32
2023-04-18T21:53:56.205Z,4.07
2023-04-18T21:56:23.668Z,4.22
2023-04-18T21:58:51.166Z,3.75
2023-04-18T22:01:18.708Z,4.38
2023-04-18T22:03:46.945Z,3.60
2023-04-18T22:06:14.552Z,4.22
2023-04-18T22:08:42.119Z,4.28
2023-04-18T22:11:11.628Z,3.80
2023-04-18T22:13:39.174Z,4.10
2023-04-18T22:16:08.232Z,3.58
2023-04-18T22:18:37.647Z,3.95
2023-04-18T22:21:06.713Z,4.10
2023-04-18T22:23:34.161Z,4.05
2023-04-18T22:26:01.643Z,3.30
2023-04-18T22:28:29.348Z,4.65
2023-04-18T22:30:56.976Z,4.25
2023-04-18T22:33:24.841Z,4.25
2023-04-18T22:35:52.627Z,4.10
2023-04-18T22:38:20.156Z,4.32
2023-04-18T22:40:47.712Z,4.47
2023-04-18T22:43:15.302Z,3.63
2023-04-18T22:45:42.802Z,3.40
2023-04-18T22:48:12.713Z,3.67
2023-04-18T22:50:42.913Z,3.63
2023-04-18T22:53:11.393Z,3.85
2023-04-18T22:55:40.415Z,4.60
2023-04-18T22:58:08.649Z,3.00
2023-04-18T23:00:36.448Z,3.70
2023-04-18T23:03:04.432Z,4.38
2023-04-18T23:05:32.215Z,4.47
2023-04-18T23:08:00.523Z,4.32
2023-04-18T23:10:28.478Z,3.22
2023-04-18T23:12:56.385Z,4.88
2023-04-18T23:15:24.147Z,6.07
2023-04-18T23:17:53.140Z,5.25
2023-04-18T23:20:21.590Z,4.00
2023-04-18T23:22:51.519Z,4.50
2023-04-18T23:25:22.221Z,4.10
2023-04-18T23:27:49.915Z,4.18
2023-04-18T23:30:17.454Z,4.50
2023-04-18T23:32:44.986Z,5.25
2023-04-18T23:35:12.548Z,5.43
2023-04-18T23:37:40.192Z,4.82
2023-04-18T23:40:08.622Z,5.50
2023-04-18T23:42:36.781Z,5.40
2023-04-18T23:45:05.785Z,5.82
2023-04-18T23:47:34.783Z,5.38
2023-04-18T23:50:02.459Z,5.43
2023-04-18T23:52:31.068Z,5.93
2023-04-18T23:55:00.726Z,5.47
2023-04-18T23:57:28.194Z,6.45
2023-04-18T23:59:55.801Z,6.63
